sensor_id;sensor_type;location;lat;lon;timestamp;P1;durP1;ratioP1;P2;durP2;ratioP2
479;SDS011;226;48.606;9.096;2023-02-28T00:01:07;4.70;;;4.40;;
479;SDS011;226;48.606;9.096;2023-02-28T00:03:36;4.97;;;4.57;;
479;SDS011;226;48.606;9.096;2023-02-28T00:06:06;3.60;;;3.23;;
479;SDS011;226;48.606;9.096;2023-02-28T00:08:36;3.07;;;2.80;;
479;SDS011;226;48.606;9.096;2023-02-28T00:11:06;2.90;;;2.80;;
479;SDS011;226;48.606;9.096;2023-02-28T00:13:36;3.30;;;3.10;;
479;SDS011;226;48.606;9.096;2023-02-28T00:16:06;3.10;;;3.00;;
479;SDS011;226;48.606;9.096;2023-02-28T00:18:36;3.03;;;2.90;;
479;SDS011;226;48.606;9.096;2023-02-28T00:21:06;5.43;;;3.70;;
479;SDS011;226;48.606;9.096;2023-02-28T00:23:35;7.07;;;4.20;;
479;SDS011;226;48.606;9.096;2023-02-28T00:26:03;3.77;;;3.47;;
479;SDS011;226;48.606;9.096;2023-02-28T00:28:31;4.23;;;3.67;;
479;SDS011;226;48.606;9.096;2023-02-28T00:30:59;2.50;;;2.50;;
479;SDS011;226;48.606;9.096;2023-02-28T00:33:28;3.07;;;2.87;;
479;SDS011;226;48.606;9.096;2023-02-28T00:36:08;2.93;;;2.83;;
479;SDS011;226;48.606;9.096;2023-02-28T00:38:37;3.40;;;3.20;;
479;SDS011;226;48.606;9.096;2023-02-28T00:41:07;2.73;;;2.63;;
479;SDS011;226;48.606;9.096;2023-02-28T00:43:36;3.83;;;3.63;;
479;SDS011;226;48.606;9.096;2023-02-28T00:46:06;4.70;;;4.20;;
479;SDS011;226;48.606;9.096;2023-02-28T00:48:34;3.80;;;3.60;;
479;SDS011;226;48.606;9.096;2023-02-28T00:51:04;3.80;;;3.70;;
479;SDS011;226;48.606;9.096;2023-02-28T00:53:34;3.67;;;3.47;;
479;SDS011;226;48.606;9.096;2023-02-28T00:56:02;4.37;;;4.03;;
479;SDS011;226;48.606;9.096;2023-02-28T00:58:30;3.03;;;2.83;;
479;SDS011;226;48.606;9.096;2023-02-28T01:00:58;2.37;;;2.27;;
479;SDS011;226;48.606;9.096;2023-02-28T01:03:27;2.67;;;2.43;;
479;SDS011;226;48.606;9.096;2023-02-28T01:05:55;8.10;;;3.80;;
479;SDS011;226;48.606;9.096;2023-02-28T01:08:23;3.87;;;3.57;;
479;SDS011;226;48.606;9.096;2023-02-28T01:10:54;2.77;;;2.67;;
479;SDS011;226;48.606;9.096;2023-02-28T01:13:22;3.67;;;2.40;;
479;SDS011;226;48.606;9.096;2023-02-28T01:15:52;3.03;;;2.60;;
479;SDS011;226;48.606;9.096;2023-02-28T01:18:23;5.23;;;2.83;;
479;SDS011;226;48.606;9.096;2023-02-28T01:20:51;3.30;;;3.00;;
479;SDS011;226;48.606;9.096;2023-02-28T01:23:20;2.87;;;2.87;;
479;SDS011;226;48.606;9.096;2023-02-28T01:25:49;2.47;;;2.47;;
479;SDS011;226;48.606;9.096;2023-02-28T01:28:19;3.67;;;3.37;;
479;SDS011;226;48.606;9.096;2023-02-28T01:30:48;3.10;;;2.90;;
479;SDS011;226;48.606;9.096;2023-02-28T01:33:16;2.10;;;2.10;;
479;SDS011;226;48.606;9.096;2023-02-28T01:35:44;3.43;;;3.30;;
479;SDS011;226;48.606;9.096;2023-02-28T01:38:13;3.47;;;3.37;;
479;SDS011;226;48.606;9.096;2023-02-28T01:40:48;3.90;;;3.80;;
479;SDS011;226;48.606;9.096;2023-02-28T01:43:20;2.53;;;2.53;;
479;SDS011;226;48.606;9.096;2023-02-28T01:45:50;6.20;;;3.33;;
479;SDS011;226;48.606;9.096;2023-02-28T01:48:18;8.53;;;3.70;;
479;SDS011;226;48.606;9.096;2023-02-28T01:50:48;2.60;;;2.60;;
479;SDS011;226;48.606;9.096;2023-02-28T01:53:18;5.47;;;3.57;;
479;SDS011;226;48.606;9.096;2023-02-28T01:55:51;2.00;;;2.00;;
479;SDS011;226;48.606;9.096;2023-02-28T01:58:22;2.53;;;2.43;;
479;SDS011;226;48.606;9.096;2023-02-28T02:00:50;2.73;;;2.53;;
479;SDS011;226;48.606;9.096;2023-02-28T02:03:19;7.00;;;3.03;;
479;SDS011;226;48.606;9.096;2023-02-28T02:05:48;5.80;;;3.77;;
479;SDS011;226;48.606;9.096;2023-02-28T02:08:17;3.43;;;3.33;;
479;SDS011;226;48.606;9.096;2023-02-28T02:10:48;3.20;;;3.10;;
479;SDS011;226;48.606;9.096;2023-02-28T02:13:24;4.37;;;3.97;;
479;SDS011;226;48.606;9.096;2023-02-28T02:16:04;6.43;;;4.47;;
479;SDS011;226;48.606;9.096;2023-02-28T02:18:43;6.03;;;4.53;;
479;SDS011;226;48.606;9.096;2023-02-28T02:27:27;5.10;;;3.90;;
479;SDS011;226;48.606;9.096;2023-02-28T02:30:20;3.40;;;3.20;;
479;SDS011;226;48.606;9.096;2023-02-28T02:36:17;3.23;;;3.07;;
479;SDS011;226;48.606;9.096;2023-02-28T02:38:51;2.93;;;2.73;;
479;SDS011;226;48.606;9.096;2023-02-28T02:41:24;4.37;;;3.97;;
479;SDS011;226;48.606;9.096;2023-02-28T02:43:56;3.17;;;3.00;;
479;SDS011;226;48.606;9.096;2023-02-28T02:46:30;4.43;;;4.13;;
479;SDS011;226;48.606;9.096;2023-02-28T02:49:02;2.37;;;2.30;;
479;SDS011;226;48.606;9.096;2023-02-28T02:51:34;3.00;;;2.80;;
479;SDS011;226;48.606;9.096;2023-02-28T02:54:05;2.97;;;2.87;;
479;SDS011;226;48.606;9.096;2023-02-28T02:56:35;2.50;;;2.47;;
479;SDS011;226;48.606;9.096;2023-02-28T02:59:07;3.37;;;3.20;;
479;SDS011;226;48.606;9.096;2023-02-28T03:01:38;3.87;;;3.70;;
479;SDS011;226;48.606;9.096;2023-02-28T03:04:09;4.07;;;3.87;;
479;SDS011;226;48.606;9.096;2023-02-28T03:06:40;5.63;;;3.80;;
479;SDS011;226;48.606;9.096;2023-02-28T03:09:08;3.70;;;3.60;;
479;SDS011;226;48.606;9.096;2023-02-28T03:11:37;3.97;;;3.57;;
479;SDS011;226;48.606;9.096;2023-02-28T03:14:09;4.60;;;4.00;;
479;SDS011;226;48.606;9.096;2023-02-28T03:17:04;9.70;;;5.07;;
479;SDS011;226;48.606;9.096;2023-02-28T03:25:27;4.10;;;3.90;;
479;SDS011;226;48.606;9.096;2023-02-28T03:28:00;2.40;;;2.40;;
479;SDS011;226;48.606;9.096;2023-02-28T03:30:35;3.23;;;3.10;;
479;SDS011;226;48.606;9.096;2023-02-28T03:33:08;2.73;;;2.63;;
479;SDS011;226;48.606;9.096;2023-02-28T03:35:41;4.83;;;4.53;;
479;SDS011;226;48.606;9.096;2023-02-28T03:38:15;3.23;;;3.07;;
479;SDS011;226;48.606;9.096;2023-02-28T03:40:48;5.30;;;4.00;;
479;SDS011;226;48.606;9.096;2023-02-28T03:43:20;4.20;;;3.80;;
479;SDS011;226;48.606;9.096;2023-02-28T03:45:52;2.50;;;2.40;;
479;SDS011;226;48.606;9.096;2023-02-28T03:48:24;3.23;;;3.13;;
479;SDS011;226;48.606;9.096;2023-02-28T03:50:59;4.20;;;4.00;;
479;SDS011;226;48.606;9.096;2023-02-28T03:53:30;4.93;;;3.27;;
479;SDS011;226;48.606;9.096;2023-02-28T03:56:02;8.33;;;4.10;;
479;SDS011;226;48.606;9.096;2023-02-28T03:58:37;3.20;;;3.10;;
479;SDS011;226;48.606;9.096;2023-02-28T04:01:12;2.63;;;2.53;;
479;SDS011;226;48.606;9.096;2023-02-28T04:03:44;2.77;;;2.67;;
479;SDS011;226;48.606;9.096;2023-02-28T04:06:13;4.17;;;3.80;;
479;SDS011;226;48.606;9.096;2023-02-28T04:08:45;5.17;;;4.50;;
479;SDS011;226;48.606;9.096;2023-02-28T04:11:17;4.77;;;4.47;;
479;SDS011;226;48.606;9.096;2023-02-28T04:13:48;3.30;;;3.20;;
479;SDS011;226;48.606;9.096;2023-02-28T04:16:16;4.57;;;4.23;;
479;SDS011;226;48.606;9.096;2023-02-28T04:19:00;4.60;;;3.50;;
479;SDS011;226;48.606;9.096;2023-02-28T04:21:30;3.03;;;2.93;;
479;SDS011;226;48.606;9.096;2023-02-28T04:24:01;2.60;;;2.40;;
479;SDS011;226;48.606;9.096;2023-02-28T04:26:30;5.90;;;4.30;;
479;SDS011;226;48.606;9.096;2023-02-28T04:28:58;3.73;;;3.50;;
479;SDS011;226;48.606;9.096;2023-02-28T04:31:27;3.80;;;3.50;;
479;SDS011;226;48.606;9.096;2023-02-28T04:33:56;4.17;;;3.87;;
479;SDS011;226;48.606;9.096;2023-02-28T04:36:24;4.63;;;3.83;;
479;SDS011;226;48.606;9.096;2023-02-28T04:38:52;3.80;;;3.50;;
479;SDS011;226;48.606;9.096;2023-02-28T04:41:21;4.17;;;3.80;;
479;SDS011;226;48.606;9.096;2023-02-28T04:43:50;12.53;;;3.93;;
479;SDS011;226;48.606;9.096;2023-02-28T04:46:19;5.40;;;4.53;;
479;SDS011;226;48.606;9.096;2023-02-28T04:48:47;5.30;;;5.00;;
479;SDS011;226;48.606;9.096;2023-02-28T04:51:17;4.80;;;4.40;;
479;SDS011;226;48.606;9.096;2023-02-28T04:53:46;6.13;;;5.67;;
479;SDS011;226;48.606;9.096;2023-02-28T04:56:15;5.93;;;3.80;;
479;SDS011;226;48.606;9.096;2023-02-28T04:58:45;4.20;;;3.00;;
479;SDS011;226;48.606;9.096;2023-02-28T05:01:16;9.50;;;4.50;;
479;SDS011;226;48.606;9.096;2023-02-28T05:03:49;10.73;;;4.90;;
479;SDS011;226;48.606;9.096;2023-02-28T05:06:18;4.50;;;3.73;;
479;SDS011;226;48.606;9.096;2023-02-28T05:08:47;4.07;;;3.80;;
479;SDS011;226;48.606;9.096;2023-02-28T05:11:17;4.40;;;4.20;;
479;SDS011;226;48.606;9.096;2023-02-28T05:13:48;3.80;;;3.70;;
479;SDS011;226;48.606;9.096;2023-02-28T05:16:16;3.50;;;3.00;;
479;SDS011;226;48.606;9.096;2023-02-28T05:18:45;4.90;;;4.27;;
479;SDS011;226;48.606;9.096;2023-02-28T05:21:27;6.77;;;4.73;;
479;SDS011;226;48.606;9.096;2023-02-28T05:23:57;4.30;;;4.10;;
479;SDS011;226;48.606;9.096;2023-02-28T05:26:27;3.93;;;3.63;;
479;SDS011;226;48.606;9.096;2023-02-28T05:28:56;6.10;;;5.67;;
479;SDS011;226;48.606;9.096;2023-02-28T05:31:25;4.70;;;4.40;;
479;SDS011;226;48.606;9.096;2023-02-28T05:33:53;3.37;;;3.07;;
479;SDS011;226;48.606;9.096;2023-02-28T05:36:22;6.77;;;4.50;;
479;SDS011;226;48.606;9.096;2023-02-28T05:38:51;9.23;;;5.17;;
479;SDS011;226;48.606;9.096;2023-02-28T05:41:19;2.63;;;2.63;;
479;SDS011;226;48.606;9.096;2023-02-28T05:43:50;3.87;;;3.63;;
479;SDS011;226;48.606;9.096;2023-02-28T05:46:20;9.37;;;6.40;;
479;SDS011;226;48.606;9.096;2023-02-28T05:48:48;10.13;;;5.37;;
479;SDS011;226;48.606;9.096;2023-02-28T05:51:16;5.13;;;4.60;;
479;SDS011;226;48.606;9.096;2023-02-28T05:53:44;5.13;;;3.60;;
479;SDS011;226;48.606;9.096;2023-02-28T05:56:14;4.30;;;3.90;;
479;SDS011;226;48.606;9.096;2023-02-28T05:58:42;7.00;;;6.60;;
479;SDS011;226;48.606;9.096;2023-02-28T06:01:24;3.13;;;3.03;;
479;SDS011;226;48.606;9.096;2023-02-28T06:03:59;4.70;;;3.97;;
479;SDS011;226;48.606;9.096;2023-02-28T06:06:27;4.40;;;4.07;;
479;SDS011;226;48.606;9.096;2023-02-28T06:08:56;4.60;;;4.40;;
479;SDS011;226;48.606;9.096;2023-02-28T06:11:25;11.33;;;7.40;;
479;SDS011;226;48.606;9.096;2023-02-28T06:13:54;14.33;;;4.53;;
479;SDS011;226;48.606;9.096;2023-02-28T06:16:24;4.90;;;4.43;;
479;SDS011;226;48.606;9.096;2023-02-28T06:18:53;13.20;;;5.70;;
479;SDS011;226;48.606;9.096;2023-02-28T06:21:24;11.27;;;5.03;;
479;SDS011;226;48.606;9.096;2023-02-28T06:23:54;7.13;;;4.33;;
479;SDS011;226;48.606;9.096;2023-02-28T06:26:23;4.23;;;4.03;;
479;SDS011;226;48.606;9.096;2023-02-28T06:28:51;2.90;;;2.70;;
479;SDS011;226;48.606;9.096;2023-02-28T06:31:20;9.87;;;6.80;;
479;SDS011;226;48.606;9.096;2023-02-28T06:33:50;9.00;;;5.63;;
479;SDS011;226;48.606;9.096;2023-02-28T06:36:18;4.70;;;4.33;;
479;SDS011;226;48.606;9.096;2023-02-28T06:38:46;12.73;;;5.43;;
479;SDS011;226;48.606;9.096;2023-02-28T06:41:17;5.97;;;5.57;;
479;SDS011;226;48.606;9.096;2023-02-28T06:43:45;7.17;;;5.07;;
479;SDS011;226;48.606;9.096;2023-02-28T06:46:14;5.20;;;4.70;;
479;SDS011;226;48.606;9.096;2023-02-28T06:48:42;7.37;;;3.37;;
479;SDS011;226;48.606;9.096;2023-02-28T06:51:13;4.53;;;4.13;;
479;SDS011;226;48.606;9.096;2023-02-28T06:53:43;7.20;;;4.90;;
479;SDS011;226;48.606;9.096;2023-02-28T06:56:12;5.10;;;4.67;;
479;SDS011;226;48.606;9.096;2023-02-28T06:58:41;6.87;;;5.90;;
479;SDS011;226;48.606;9.096;2023-02-28T07:01:10;5.60;;;4.57;;
479;SDS011;226;48.606;9.096;2023-02-28T07:03:38;10.80;;;5.03;;
479;SDS011;226;48.606;9.096;2023-02-28T07:06:06;6.20;;;4.10;;
479;SDS011;226;48.606;9.096;2023-02-28T07:08:35;12.33;;;6.00;;
479;SDS011;226;48.606;9.096;2023-02-28T07:11:04;7.83;;;6.37;;
479;SDS011;226;48.606;9.096;2023-02-28T07:13:32;7.43;;;4.00;;
479;SDS011;226;48.606;9.096;2023-02-28T07:16:00;6.17;;;4.90;;
479;SDS011;226;48.606;9.096;2023-02-28T07:18:30;8.17;;;4.70;;
479;SDS011;226;48.606;9.096;2023-02-28T07:21:01;7.70;;;5.80;;
479;SDS011;226;48.606;9.096;2023-02-28T07:23:29;5.50;;;4.03;;
479;SDS011;226;48.606;9.096;2023-02-28T07:25:59;5.77;;;5.17;;
479;SDS011;226;48.606;9.096;2023-02-28T07:28:27;7.67;;;4.87;;
479;SDS011;226;48.606;9.096;2023-02-28T07:30:55;7.27;;;5.13;;
479;SDS011;226;48.606;9.096;2023-02-28T07:33:23;5.80;;;5.27;;
479;SDS011;226;48.606;9.096;2023-02-28T07:35:52;7.87;;;5.50;;
479;SDS011;226;48.606;9.096;2023-02-28T07:38:27;11.57;;;5.80;;
479;SDS011;226;48.606;9.096;2023-02-28T07:40:55;4.43;;;4.07;;
479;SDS011;226;48.606;9.096;2023-02-28T07:43:24;4.53;;;4.13;;
479;SDS011;226;48.606;9.096;2023-02-28T07:45:52;7.20;;;6.10;;
479;SDS011;226;48.606;9.096;2023-02-28T07:48:20;5.20;;;4.70;;
479;SDS011;226;48.606;9.096;2023-02-28T07:50:53;5.67;;;5.17;;
479;SDS011;226;48.606;9.096;2023-02-28T07:53:22;4.57;;;4.27;;
479;SDS011;226;48.606;9.096;2023-02-28T07:55:50;5.77;;;5.10;;
479;SDS011;226;48.606;9.096;2023-02-28T07:58:22;9.40;;;4.90;;
479;SDS011;226;48.606;9.096;2023-02-28T08:00:52;8.63;;;5.87;;
479;SDS011;226;48.606;9.096;2023-02-28T08:03:21;29.27;;;6.77;;
479;SDS011;226;48.606;9.096;2023-02-28T08:05:50;9.27;;;5.50;;
479;SDS011;226;48.606;9.096;2023-02-28T08:08:19;6.00;;;5.43;;
479;SDS011;226;48.606;9.096;2023-02-28T08:10:47;6.23;;;5.47;;
479;SDS011;226;48.606;9.096;2023-02-28T08:13:16;15.00;;;6.80;;
479;SDS011;226;48.606;9.096;2023-02-28T08:15:44;4.43;;;4.10;;
479;SDS011;226;48.606;9.096;2023-02-28T08:18:15;8.20;;;4.53;;
479;SDS011;226;48.606;9.096;2023-02-28T08:20:43;14.27;;;5.87;;
479;SDS011;226;48.606;9.096;2023-02-28T08:23:11;12.07;;;6.73;;
479;SDS011;226;48.606;9.096;2023-02-28T08:25:39;5.43;;;4.70;;
479;SDS011;226;48.606;9.096;2023-02-28T08:28:07;10.30;;;5.20;;
479;SDS011;226;48.606;9.096;2023-02-28T08:30:35;6.77;;;4.60;;
479;SDS011;226;48.606;9.096;2023-02-28T08:33:04;5.83;;;4.63;;
479;SDS011;226;48.606;9.096;2023-02-28T08:35:33;5.33;;;4.93;;
479;SDS011;226;48.606;9.096;2023-02-28T08:38:03;4.60;;;4.20;;
479;SDS011;226;48.606;9.096;2023-02-28T08:40:31;8.13;;;5.60;;
479;SDS011;226;48.606;9.096;2023-02-28T08:42:59;7.60;;;5.73;;
479;SDS011;226;48.606;9.096;2023-02-28T08:45:27;6.37;;;5.03;;
479;SDS011;226;48.606;9.096;2023-02-28T08:47:56;10.57;;;7.07;;
479;SDS011;226;48.606;9.096;2023-02-28T08:50:24;10.07;;;6.07;;
479;SDS011;226;48.606;9.096;2023-02-28T08:52:53;8.80;;;5.53;;
479;SDS011;226;48.606;9.096;2023-02-28T08:55:22;7.77;;;5.27;;
479;SDS011;226;48.606;9.096;2023-02-28T08:57:50;12.30;;;6.20;;
479;SDS011;226;48.606;9.096;2023-02-28T09:00:19;6.83;;;5.23;;
479;SDS011;226;48.606;9.096;2023-02-28T09:02:48;20.03;;;8.33;;
479;SDS011;226;48.606;9.096;2023-02-28T09:05:16;13.17;;;7.33;;
479;SDS011;226;48.606;9.096;2023-02-28T09:07:44;19.83;;;7.70;;
479;SDS011;226;48.606;9.096;2023-02-28T09:10:13;9.37;;;6.63;;
479;SDS011;226;48.606;9.096;2023-02-28T09:12:41;12.03;;;5.07;;
479;SDS011;226;48.606;9.096;2023-02-28T09:15:12;11.50;;;6.37;;
479;SDS011;226;48.606;9.096;2023-02-28T09:17:40;11.13;;;6.30;;
479;SDS011;226;48.606;9.096;2023-02-28T09:20:12;6.93;;;4.73;;
479;SDS011;226;48.606;9.096;2023-02-28T09:22:40;7.57;;;6.83;;
479;SDS011;226;48.606;9.096;2023-02-28T09:25:08;12.03;;;7.00;;
479;SDS011;226;48.606;9.096;2023-02-28T09:27:37;27.80;;;7.70;;
479;SDS011;226;48.606;9.096;2023-02-28T09:30:07;5.70;;;5.20;;
479;SDS011;226;48.606;9.096;2023-02-28T09:32:36;8.50;;;5.50;;
479;SDS011;226;48.606;9.096;2023-02-28T09:35:05;33.83;;;4.93;;
479;SDS011;226;48.606;9.096;2023-02-28T09:37:39;12.13;;;5.60;;
479;SDS011;226;48.606;9.096;2023-02-28T09:40:08;15.37;;;7.10;;
479;SDS011;226;48.606;9.096;2023-02-28T09:42:38;13.90;;;7.57;;
479;SDS011;226;48.606;9.096;2023-02-28T09:45:10;14.80;;;6.80;;
479;SDS011;226;48.606;9.096;2023-02-28T09:47:47;17.87;;;7.50;;
479;SDS011;226;48.606;9.096;2023-02-28T09:50:17;14.23;;;7.30;;
479;SDS011;226;48.606;9.096;2023-02-28T09:52:56;7.40;;;6.10;;
479;SDS011;226;48.606;9.096;2023-02-28T09:55:26;8.10;;;7.13;;
479;SDS011;226;48.606;9.096;2023-02-28T09:58:09;21.20;;;10.23;;
479;SDS011;226;48.606;9.096;2023-02-28T10:00:45;12.07;;;6.67;;
479;SDS011;226;48.606;9.096;2023-02-28T10:03:25;10.47;;;6.17;;
479;SDS011;226;48.606;9.096;2023-02-28T10:05:58;12.30;;;6.73;;
479;SDS011;226;48.606;9.096;2023-02-28T10:08:33;15.47;;;7.30;;
479;SDS011;226;48.606;9.096;2023-02-28T10:11:09;6.83;;;5.63;;
479;SDS011;226;48.606;9.096;2023-02-28T10:13:45;8.50;;;6.30;;
479;SDS011;226;48.606;9.096;2023-02-28T10:16:23;5.63;;;4.50;;
479;SDS011;226;48.606;9.096;2023-02-28T10:18:57;10.53;;;7.47;;
479;SDS011;226;48.606;9.096;2023-02-28T10:21:31;9.00;;;5.73;;
479;SDS011;226;48.606;9.096;2023-02-28T10:24:04;7.13;;;4.70;;
479;SDS011;226;48.606;9.096;2023-02-28T10:26:41;10.93;;;6.17;;
479;SDS011;226;48.606;9.096;2023-02-28T10:29:13;13.40;;;7.13;;
479;SDS011;226;48.606;9.096;2023-02-28T10:31:42;7.03;;;6.40;;
479;SDS011;226;48.606;9.096;2023-02-28T10:34:11;6.70;;;5.70;;
479;SDS011;226;48.606;9.096;2023-02-28T10:36:41;8.83;;;6.47;;
479;SDS011;226;48.606;9.096;2023-02-28T10:42:05;15.60;;;7.60;;
479;SDS011;226;48.606;9.096;2023-02-28T10:44:47;6.53;;;5.23;;
479;SDS011;226;48.606;9.096;2023-02-28T10:47:16;7.67;;;6.40;;
479;SDS011;226;48.606;9.096;2023-02-28T10:49:47;8.60;;;4.70;;
479;SDS011;226;48.606;9.096;2023-02-28T10:52:31;11.37;;;6.30;;
479;SDS011;226;48.606;9.096;2023-02-28T10:55:16;11.43;;;7.53;;
479;SDS011;226;48.606;9.096;2023-02-28T10:57:49;14.70;;;7.10;;
479;SDS011;226;48.606;9.096;2023-02-28T11:00:19;7.50;;;6.47;;
479;SDS011;226;48.606;9.096;2023-02-28T11:02:51;8.97;;;6.43;;
479;SDS011;226;48.606;9.096;2023-02-28T11:05:27;11.43;;;7.47;;
479;SDS011;226;48.606;9.096;2023-02-28T11:08:05;9.53;;;5.40;;
479;SDS011;226;48.606;9.096;2023-02-28T11:10:39;10.83;;;4.77;;
479;SDS011;226;48.606;9.096;2023-02-28T11:13:15;17.33;;;7.70;;
479;SDS011;226;48.606;9.096;2023-02-28T11:15:50;17.53;;;8.03;;
479;SDS011;226;48.606;9.096;2023-02-28T11:18:21;7.17;;;5.97;;
479;SDS011;226;48.606;9.096;2023-02-28T11:20:53;17.20;;;7.77;;
479;SDS011;226;48.606;9.096;2023-02-28T11:23:24;7.80;;;7.13;;
479;SDS011;226;48.606;9.096;2023-02-28T11:25:55;9.47;;;7.23;;
479;SDS011;226;48.606;9.096;2023-02-28T11:28:26;18.67;;;6.93;;
479;SDS011;226;48.606;9.096;2023-02-28T11:31:02;8.80;;;5.10;;
479;SDS011;226;48.606;9.096;2023-02-28T11:33:37;9.53;;;7.33;;
479;SDS011;226;48.606;9.096;2023-02-28T11:36:11;13.20;;;7.20;;
479;SDS011;226;48.606;9.096;2023-02-28T11:38:42;9.00;;;5.50;;
479;SDS011;226;48.606;9.096;2023-02-28T11:41:17;6.43;;;5.07;;
479;SDS011;226;48.606;9.096;2023-02-28T11:44:10;12.47;;;7.60;;
479;SDS011;226;48.606;9.096;2023-02-28T11:46:51;16.53;;;7.73;;
479;SDS011;226;48.606;9.096;2023-02-28T11:49:25;8.93;;;5.07;;
479;SDS011;226;48.606;9.096;2023-02-28T11:52:01;7.47;;;6.77;;
479;SDS011;226;48.606;9.096;2023-02-28T11:54:43;8.23;;;5.77;;
479;SDS011;226;48.606;9.096;2023-02-28T11:57:31;6.03;;;5.40;;
479;SDS011;226;48.606;9.096;2023-02-28T12:00:08;7.53;;;6.73;;
479;SDS011;226;48.606;9.096;2023-02-28T12:02:58;9.80;;;7.13;;
479;SDS011;226;48.606;9.096;2023-02-28T12:05:33;12.70;;;4.83;;
479;SDS011;226;48.606;9.096;2023-02-28T12:08:15;11.90;;;7.07;;
479;SDS011;226;48.606;9.096;2023-02-28T12:10:54;7.87;;;4.87;;
479;SDS011;226;48.606;9.096;2023-02-28T12:13:34;10.07;;;7.27;;
479;SDS011;226;48.606;9.096;2023-02-28T12:16:18;6.20;;;5.70;;
479;SDS011;226;48.606;9.096;2023-02-28T12:19:15;6.53;;;4.83;;
479;SDS011;226;48.606;9.096;2023-02-28T12:21:57;10.07;;;6.63;;
479;SDS011;226;48.606;9.096;2023-02-28T12:27:34;9.27;;;6.60;;
479;SDS011;226;48.606;9.096;2023-02-28T12:30:08;13.97;;;6.93;;
479;SDS011;226;48.606;9.096;2023-02-28T12:32:44;7.03;;;5.50;;
479;SDS011;226;48.606;9.096;2023-02-28T12:35:17;11.50;;;6.30;;
479;SDS011;226;48.606;9.096;2023-02-28T12:37:49;11.33;;;7.03;;
479;SDS011;226;48.606;9.096;2023-02-28T12:40:25;11.63;;;6.03;;
479;SDS011;226;48.606;9.096;2023-02-28T12:42:56;6.03;;;5.30;;
479;SDS011;226;48.606;9.096;2023-02-28T12:45:31;14.60;;;6.47;;
479;SDS011;226;48.606;9.096;2023-02-28T12:48:08;18.10;;;6.77;;
479;SDS011;226;48.606;9.096;2023-02-28T12:50:42;17.70;;;7.10;;
479;SDS011;226;48.606;9.096;2023-02-28T12:53:12;12.27;;;6.33;;
479;SDS011;226;48.606;9.096;2023-02-28T12:55:48;10.40;;;7.63;;
479;SDS011;226;48.606;9.096;2023-02-28T12:58:26;16.27;;;6.40;;
479;SDS011;226;48.606;9.096;2023-02-28T13:01:05;13.47;;;7.00;;
479;SDS011;226;48.606;9.096;2023-02-28T13:10:10;16.83;;;8.60;;
479;SDS011;226;48.606;9.096;2023-02-28T13:12:38;14.93;;;6.07;;
479;SDS011;226;48.606;9.096;2023-02-28T13:15:17;7.00;;;5.23;;
479;SDS011;226;48.606;9.096;2023-02-28T13:17:50;10.07;;;6.80;;
479;SDS011;226;48.606;9.096;2023-02-28T13:20:21;9.87;;;5.67;;
479;SDS011;226;48.606;9.096;2023-02-28T13:22:54;21.93;;;7.13;;
479;SDS011;226;48.606;9.096;2023-02-28T13:31:40;8.60;;;5.33;;
479;SDS011;226;48.606;9.096;2023-02-28T13:35:11;10.93;;;5.83;;
479;SDS011;226;48.606;9.096;2023-02-28T13:38:09;10.77;;;7.20;;
479;SDS011;226;48.606;9.096;2023-02-28T13:40:51;10.03;;;6.57;;
479;SDS011;226;48.606;9.096;2023-02-28T13:43:19;11.93;;;7.90;;
479;SDS011;226;48.606;9.096;2023-02-28T13:46:08;10.60;;;5.93;;
479;SDS011;226;48.606;9.096;2023-02-28T13:48:39;13.17;;;7.00;;
479;SDS011;226;48.606;9.096;2023-02-28T13:51:38;7.63;;;5.60;;
479;SDS011;226;48.606;9.096;2023-02-28T13:54:20;12.90;;;7.37;;
479;SDS011;226;48.606;9.096;2023-02-28T13:57:03;11.63;;;6.30;;
479;SDS011;226;48.606;9.096;2023-02-28T13:59:43;17.43;;;6.90;;
479;SDS011;226;48.606;9.096;2023-02-28T14:02:29;13.50;;;7.90;;
479;SDS011;226;48.606;9.096;2023-02-28T14:05:13;16.50;;;6.57;;
479;SDS011;226;48.606;9.096;2023-02-28T14:07:45;16.40;;;7.10;;
479;SDS011;226;48.606;9.096;2023-02-28T14:13:02;10.83;;;6.33;;
479;SDS011;226;48.606;9.096;2023-02-28T14:15:43;10.80;;;6.57;;
479;SDS011;226;48.606;9.096;2023-02-28T14:18:20;12.30;;;6.70;;
479;SDS011;226;48.606;9.096;2023-02-28T14:20:54;11.67;;;6.70;;
479;SDS011;226;48.606;9.096;2023-02-28T14:23:32;16.10;;;7.43;;
479;SDS011;226;48.606;9.096;2023-02-28T14:26:13;16.93;;;7.93;;
479;SDS011;226;48.606;9.096;2023-02-28T14:29:01;16.67;;;6.50;;
479;SDS011;226;48.606;9.096;2023-02-28T14:31:42;10.37;;;7.00;;
479;SDS011;226;48.606;9.096;2023-02-28T14:34:20;13.03;;;7.37;;
479;SDS011;226;48.606;9.096;2023-02-28T14:36:58;15.00;;;8.10;;
479;SDS011;226;48.606;9.096;2023-02-28T14:39:31;13.27;;;6.73;;
479;SDS011;226;48.606;9.096;2023-02-28T14:41:59;17.90;;;8.67;;
479;SDS011;226;48.606;9.096;2023-02-28T14:44:31;13.70;;;7.87;;
479;SDS011;226;48.606;9.096;2023-02-28T14:47:00;11.50;;;6.27;;
479;SDS011;226;48.606;9.096;2023-02-28T14:49:34;11.63;;;5.93;;
479;SDS011;226;48.606;9.096;2023-02-28T14:52:06;14.07;;;6.53;;
479;SDS011;226;48.606;9.096;2023-02-28T14:54:41;11.57;;;5.80;;
479;SDS011;226;48.606;9.096;2023-02-28T14:57:20;10.73;;;6.77;;
479;SDS011;226;48.606;9.096;2023-02-28T15:00:00;10.23;;;6.07;;
479;SDS011;226;48.606;9.096;2023-02-28T15:02:31;10.90;;;6.27;;
479;SDS011;226;48.606;9.096;2023-02-28T15:05:10;10.50;;;6.90;;
479;SDS011;226;48.606;9.096;2023-02-28T15:07:46;15.37;;;5.50;;
479;SDS011;226;48.606;9.096;2023-02-28T15:10:17;12.73;;;5.97;;
479;SDS011;226;48.606;9.096;2023-02-28T15:12:49;13.60;;;6.13;;
479;SDS011;226;48.606;9.096;2023-02-28T15:15:19;10.70;;;6.37;;
479;SDS011;226;48.606;9.096;2023-02-28T15:18:05;16.17;;;7.50;;
479;SDS011;226;48.606;9.096;2023-02-28T15:20:34;10.23;;;6.70;;
479;SDS011;226;48.606;9.096;2023-02-28T15:23:03;16.90;;;7.68;;
479;SDS011;226;48.606;9.096;2023-02-28T15:25:33;15.60;;;7.13;;
479;SDS011;226;48.606;9.096;2023-02-28T15:28:02;18.50;;;7.67;;
479;SDS011;226;48.606;9.096;2023-02-28T15:30:30;8.50;;;6.10;;
479;SDS011;226;48.606;9.096;2023-02-28T15:33:04;12.63;;;6.40;;
479;SDS011;226;48.606;9.096;2023-02-28T15:35:45;8.60;;;5.60;;
479;SDS011;226;48.606;9.096;2023-02-28T15:38:15;11.03;;;6.80;;
479;SDS011;226;48.606;9.096;2023-02-28T15:40:49;11.17;;;5.37;;
479;SDS011;226;48.606;9.096;2023-02-28T15:43:24;15.60;;;7.40;;
479;SDS011;226;48.606;9.096;2023-02-28T15:45:55;15.87;;;6.43;;
479;SDS011;226;48.606;9.096;2023-02-28T15:48:27;8.10;;;5.57;;
479;SDS011;226;48.606;9.096;2023-02-28T15:51:01;12.37;;;6.87;;
479;SDS011;226;48.606;9.096;2023-02-28T15:53:34;10.87;;;5.70;;
479;SDS011;226;48.606;9.096;2023-02-28T15:56:07;9.87;;;6.20;;
479;SDS011;226;48.606;9.096;2023-02-28T15:58:49;12.00;;;6.43;;
479;SDS011;226;48.606;9.096;2023-02-28T16:01:23;11.30;;;6.03;;
479;SDS011;226;48.606;9.096;2023-02-28T16:03:53;14.23;;;6.90;;
479;SDS011;226;48.606;9.096;2023-02-28T16:06:32;9.10;;;6.43;;
479;SDS011;226;48.606;9.096;2023-02-28T16:09:06;11.30;;;5.20;;
479;SDS011;226;48.606;9.096;2023-02-28T16:11:38;13.10;;;6.40;;
479;SDS011;226;48.606;9.096;2023-02-28T16:14:12;13.80;;;7.03;;
479;SDS011;226;48.606;9.096;2023-02-28T16:16:43;12.53;;;5.77;;
479;SDS011;226;48.606;9.096;2023-02-28T16:19:12;10.27;;;6.07;;
479;SDS011;226;48.606;9.096;2023-02-28T16:21:43;14.30;;;7.13;;
479;SDS011;226;48.606;9.096;2023-02-28T16:24:12;16.93;;;7.40;;
479;SDS011;226;48.606;9.096;2023-02-28T16:26:44;26.90;;;9.67;;
479;SDS011;226;48.606;9.096;2023-02-28T16:29:16;10.27;;;6.27;;
479;SDS011;226;48.606;9.096;2023-02-28T16:31:50;17.10;;;7.17;;
479;SDS011;226;48.606;9.096;2023-02-28T16:34:19;15.83;;;7.30;;
479;SDS011;226;48.606;9.096;2023-02-28T16:36:49;14.23;;;7.90;;
479;SDS011;226;48.606;9.096;2023-02-28T16:39:17;9.10;;;6.27;;
479;SDS011;226;48.606;9.096;2023-02-28T16:41:48;14.17;;;7.30;;
479;SDS011;226;48.606;9.096;2023-02-28T16:44:20;13.40;;;6.83;;
479;SDS011;226;48.606;9.096;2023-02-28T16:46:54;15.93;;;7.37;;
479;SDS011;226;48.606;9.096;2023-02-28T16:49:22;14.17;;;6.73;;